Time;durP1;ratioP1;P1;durP2;ratioP2;P2;SDS_P1;SDS_P2;PMS_P1;PMS_P2;Temp;Humidity;BMP_temperature;BMP_pressure;BME280_temperature;BME280_humidity;BME280_pressure;Samples;Min_cycle;Max_cycle;Signal;HPM_P1;HPM_P2
2022/11/28 00:00:28;;;;;;;;;;;;;;;13.19;95.43;100438.66;7395617;19;19915;-88
2022/11/28 00:02:56;;;;;;;;;;;;;;;13.17;95.75;100439.81;7395510;19;19919;-88
2022/11/28 00:05:23;;;;;;;;;;;;;;;13.15;95.88;100425.97;7393759;19;19947;-88
2022/11/28 00:07:50;;;;;;;;;;;;;;;13.11;95.68;100435.19;7397544;19;19954;-88
2022/11/28 00:10:17;;;;;;;;;;;;;;;13.07;95.73;100431.28;7394164;19;19917;-89
2022/11/28 00:12:46;;;;;;;;;;;;;;;13.03;95.66;100430.00;7400430;19;19934;-89
2022/11/28 00:15:13;;;;;;;;;;;;;;;13.01;95.77;100424.88;7398835;19;19963;-89
2022/11/28 00:17:40;;;;;;;;;;;;;;;12.95;95.64;100420.34;7397253;19;19946;-88
2022/11/28 00:20:08;;;;;;;;;;;;;;;12.94;96.73;100416.06;7396408;19;21424;-89
2022/11/28 00:22:35;;;;;;;;;;;;;;;12.96;97.06;100416.69;7397877;19;19925;-89
2022/11/28 00:25:02;;;;;;;;;;;;;;;12.95;97.39;100417.69;7397524;19;19919;-88
2022/11/28 00:27:29;;;;;;;;;;;;;;;12.94;97.19;100423.16;7395595;19;19932;-90
2022/11/28 00:29:56;;;;;;;;;;;;;;;12.94;97.30;100429.25;7393786;19;19982;-88
2022/11/28 00:32:23;;;;;;;;;;;;;;;12.94;96.91;100433.72;7395723;19;19917;-90
2022/11/28 00:34:51;;;;;;;;;;;;;;;12.89;96.69;100426.34;7395103;19;19947;-88
2022/11/28 00:37:20;;;;;;;;;;;;;;;12.85;96.72;100422.38;7393439;19;19918;-90
2022/11/28 00:39:50;;;;;;;;;;;;;;;12.81;96.74;100423.75;7394890;19;19995;-89
2022/11/28 00:42:20;;;;;;;;;;;;;;;12.79;97.26;100415.19;7398635;19;19930;-88
2022/11/28 00:44:48;;;;;;;;;;;;;;;12.74;97.25;100418.38;7398054;19;19922;-89
2022/11/28 00:47:15;;;;;;;;;;;;;;;12.71;97.23;100410.78;7397587;19;19991;-89
2022/11/28 00:53:00;;;;;;;;;;;;;;;12.69;98.58;100399.59;7397695;19;20316;-89
2022/11/28 00:55:27;;;;;;;;;;;;;;;12.66;98.42;100392.00;7394768;19;19993;-88
2022/11/28 00:57:55;;;;;;;;;;;;;;;12.61;97.90;100383.81;7391252;19;19943;-89
2022/11/28 01:00:22;;;;;;;;;;;;;;;12.58;98.19;100392.09;7393616;19;19933;-89
2022/11/28 01:02:50;;;;;;;;;;;;;;;12.54;97.89;100388.16;7393390;19;19954;-89
2022/11/28 01:05:18;;;;;;;;;;;;;;;12.49;97.72;100397.59;7392392;19;19929;-90
2022/11/28 01:07:45;;;;;;;;;;;;;;;12.44;97.71;100382.31;7392996;19;19919;-89
2022/11/28 01:13:31;;;;;;;;;;;;;;;12.39;97.69;100385.44;7398343;19;20345;-88
2022/11/28 01:15:58;;;;;;;;;;;;;;;12.33;97.53;100380.88;7391161;19;20353;-89
2022/11/28 01:18:25;;;;;;;;;;;;;;;12.30;97.26;100378.59;7395108;19;19926;-88
2022/11/28 01:20:52;;;;;;;;;;;;;;;12.29;97.23;100378.78;7391292;19;19915;-89
2022/11/28 01:23:19;;;;;;;;;;;;;;;12.26;97.55;100379.09;7396197;19;20024;-89
2022/11/28 01:25:57;;;;;;;;;;;;;;;12.26;97.40;100384.38;7392367;19;19970;-89
2022/11/28 01:28:23;;;;;;;;;;;;;;;12.30;97.56;100380.41;7390701;19;19914;-88
2022/11/28 01:30:50;;;;;;;;;;;;;;;12.31;97.57;100376.78;7388156;19;20302;-90
2022/11/28 01:33:17;;;;;;;;;;;;;;;12.30;97.28;100375.13;7388841;19;20629;-88
2022/11/28 01:35:53;;;;;;;;;;;;;;;12.28;96.74;100370.03;7389958;19;19922;-87
2022/11/28 01:41:39;;;;;;;;;;;;;;;12.15;96.14;100367.13;7399064;19;19923;-90
2022/11/28 01:44:06;;;;;;;;;;;;;;;12.16;96.45;100375.88;7391257;19;19951;-88
2022/11/28 01:46:34;;;;;;;;;;;;;;;12.17;96.37;100367.81;7397853;19;19929;-89
2022/11/28 01:49:16;;;;;;;;;;;;;;;12.16;95.71;100370.59;7398035;19;19925;-89
2022/11/28 01:51:46;;;;;;;;;;;;;;;12.17;95.61;100373.06;7396919;19;19915;-88
2022/11/28 01:54:15;;;;;;;;;;;;;;;12.14;95.20;100365.50;7398663;19;19907;-88
2022/11/28 01:56:46;;;;;;;;;;;;;;;12.14;95.44;100364.69;7400638;19;19947;-88
2022/11/28 01:59:16;;;;;;;;;;;;;;;12.14;95.96;100356.78;7400409;19;19926;-88
2022/11/28 02:01:44;;;;;;;;;;;;;;;12.15;96.24;100353.13;7403408;19;19926;-88
2022/11/28 02:04:12;;;;;;;;;;;;;;;12.12;96.26;100338.50;7401541;19;19918;-88
2022/11/28 02:06:40;;;;;;;;;;;;;;;12.08;96.13;100344.28;7400577;19;19915;-89
2022/11/28 02:09:11;;;;;;;;;;;;;;;12.05;95.58;100345.44;7397510;19;19987;-87
2022/11/28 02:11:47;;;;;;;;;;;;;;;12.01;94.75;100344.16;7399573;19;20319;-88
2022/11/28 02:14:24;;;;;;;;;;;;;;;12.00;95.36;100337.25;7396863;19;19926;-88
2022/11/28 02:17:02;;;;;;;;;;;;;;;11.99;95.12;100339.06;7397081;19;19914;-89
2022/11/28 02:19:38;;;;;;;;;;;;;;;11.99;94.97;100348.78;7398442;19;19923;-88
2022/11/28 02:22:08;;;;;;;;;;;;;;;11.99;94.96;100348.78;7397572;19;19922;-87
2022/11/28 02:24:48;;;;;;;;;;;;;;;11.96;94.82;100339.41;7395823;19;22654;-88
2022/11/28 02:27:22;;;;;;;;;;;;;;;11.93;94.54;100347.69;7396336;19;19966;-90
2022/11/28 02:29:58;;;;;;;;;;;;;;;11.92;94.55;100342.56;7397771;19;19926;-89
2022/11/28 02:32:30;;;;;;;;;;;;;;;11.94;95.26;100348.47;7398609;19;19927;-89
2022/11/28 02:35:12;;;;;;;;;;;;;;;11.96;95.26;100344.69;7397675;19;19918;-89
2022/11/28 02:37:42;;;;;;;;;;;;;;;11.95;94.29;100345.66;7399611;19;19960;-88
2022/11/28 02:40:12;;;;;;;;;;;;;;;11.94;93.78;100346.66;7400535;19;19963;-87
2022/11/28 02:42:46;;;;;;;;;;;;;;;11.93;93.89;100328.41;7398931;19;19949;-88
2022/11/28 02:45:17;;;;;;;;;;;;;;;11.92;94.30;100339.94;7397306;19;20218;-87
2022/11/28 02:47:47;;;;;;;;;;;;;;;11.92;93.97;100334.66;7400441;19;19919;-86
2022/11/28 02:53:33;;;;;;;;;;;;;;;11.85;94.35;100333.69;7414581;19;19918;-89
2022/11/28 02:56:03;;;;;;;;;;;;;;;11.81;94.44;100332.41;7415120;19;19947;-88
2022/11/28 02:58:30;;;;;;;;;;;;;;;11.78;93.68;100327.50;7414428;19;19940;-87
2022/11/28 03:00:57;;;;;;;;;;;;;;;11.78;94.07;100323.06;7412600;19;19925;-87
2022/11/28 03:03:35;;;;;;;;;;;;;;;11.77;94.27;100320.59;7415769;19;19915;-89
2022/11/28 03:16:04;;;;;;;;;;;;;;;11.80;94.72;100322.84;7408326;19;19928;-89
2022/11/28 03:18:36;;;;;;;;;;;;;;;11.75;94.86;100320.75;7401958;19;19929;-86
2022/11/28 03:21:15;;;;;;;;;;;;;;;11.70;94.42;100317.78;7405033;19;19982;-88
2022/11/28 03:23:49;;;;;;;;;;;;;;;11.68;94.75;100326.84;7407246;19;20337;-88
2022/11/28 03:36:17;;;;;;;;;;;;;;;11.58;93.74;100338.41;7407442;19;19922;-88
2022/11/28 03:38:53;;;;;;;;;;;;;;;11.56;93.49;100340.41;7400272;19;19915;-88
2022/11/28 03:41:29;;;;;;;;;;;;;;;11.55;93.80;100336.13;7403805;19;19922;-87
2022/11/28 03:43:57;;;;;;;;;;;;;;;11.52;93.86;100336.47;7397890;19;19936;-88
2022/11/28 03:46:30;;;;;;;;;;;;;;;11.51;93.29;100336.63;7397996;19;20015;-88
2022/11/28 03:48:59;;;;;;;;;;;;;;;11.48;93.03;100342.22;7399165;19;19938;-87
2022/11/28 03:51:31;;;;;;;;;;;;;;;11.48;93.94;100340.41;7398390;19;19919;-88
2022/11/28 03:54:01;;;;;;;;;;;;;;;11.49;94.09;100346.53;7399533;19;19959;-87
2022/11/28 03:56:38;;;;;;;;;;;;;;;11.48;93.67;100340.41;7397202;19;19937;-88
2022/11/28 03:59:10;;;;;;;;;;;;;;;11.46;93.45;100350.34;7394683;19;19950;-89
2022/11/28 04:01:40;;;;;;;;;;;;;;;11.43;93.18;100344.56;7395123;19;19982;-88
2022/11/28 04:04:13;;;;;;;;;;;;;;;11.40;93.24;100350.19;7394706;19;19933;-89
2022/11/28 04:06:50;;;;;;;;;;;;;;;11.35;93.56;100347.22;7396235;19;19929;-89
2022/11/28 04:09:18;;;;;;;;;;;;;;;11.31;93.63;100343.31;7393188;19;19927;-88
2022/11/28 04:11:50;;;;;;;;;;;;;;;11.30;93.66;100360.09;7393839;19;19919;-88
2022/11/28 04:14:22;;;;;;;;;;;;;;;11.26;93.74;100356.97;7391066;19;19922;-88
2022/11/28 04:16:50;;;;;;;;;;;;;;;11.27;93.90;100357.81;7394885;19;19919;-89
2022/11/28 04:19:32;;;;;;;;;;;;;;;11.29;94.16;100355.81;7395445;19;19923;-88
2022/11/28 04:22:02;;;;;;;;;;;;;;;11.30;95.08;100347.75;7392704;19;19911;-88
2022/11/28 04:24:32;;;;;;;;;;;;;;;11.29;94.58;100348.72;7394338;19;19927;-89
2022/11/28 04:27:04;;;;;;;;;;;;;;;11.27;94.06;100350.72;7394672;19;19939;-86
2022/11/28 04:29:34;;;;;;;;;;;;;;;11.29;94.85;100350.53;7393829;19;19927;-87
2022/11/28 04:32:02;;;;;;;;;;;;;;;11.30;95.18;100353.00;7392793;19;19939;-87
2022/11/28 04:34:31;;;;;;;;;;;;;;;11.30;95.00;100353.00;7394695;19;19922;-88
2022/11/28 04:37:00;;;;;;;;;;;;;;;11.33;94.97;100347.41;7394619;19;20259;-87
2022/11/28 04:39:35;;;;;;;;;;;;;;;11.34;94.94;100346.41;7392851;19;20424;-89
2022/11/28 04:42:11;;;;;;;;;;;;;;;11.32;94.37;100345.78;7395774;19;19937;-90
2022/11/28 04:44:43;;;;;;;;;;;;;;;11.30;94.17;100357.47;7395789;19;19991;-88
2022/11/28 04:47:10;;;;;;;;;;;;;;;11.32;94.40;100351.03;7395411;19;19926;-88
2022/11/28 04:52:56;;;;;;;;;;;;;;;11.29;93.54;100353.16;7398838;19;19930;-88
2022/11/28 04:55:23;;;;;;;;;;;;;;;11.25;93.41;100346.59;7396941;19;19923;-87
2022/11/28 04:57:52;;;;;;;;;;;;;;;11.21;93.36;100347.94;7390483;19;19923;-87
2022/11/28 05:00:22;;;;;;;;;;;;;;;11.14;93.10;100353.88;7392036;19;19994;-87
2022/11/28 05:02:52;;;;;;;;;;;;;;;11.15;93.59;100357.34;7392519;19;19926;-88
2022/11/28 05:05:21;;;;;;;;;;;;;;;11.15;93.38;100366.06;7391447;19;19929;-88
2022/11/28 05:07:48;;;;;;;;;;;;;;;11.13;93.22;100356.66;7391750;19;20392;-87
2022/11/28 05:10:15;;;;;;;;;;;;;;;11.12;93.44;100357.69;7392971;19;19939;-89
2022/11/28 05:12:42;;;;;;;;;;;;;;;11.09;93.27;100358.81;7390982;19;19943;-87
2022/11/28 05:15:11;;;;;;;;;;;;;;;11.06;93.04;100356.53;7390174;19;21304;-88
2022/11/28 05:17:40;;;;;;;;;;;;;;;11.03;93.49;100351.59;7387884;19;20337;-87
2022/11/28 05:20:11;;;;;;;;;;;;;;;11.07;95.54;100347.63;7389776;19;19918;-87
2022/11/28 05:22:38;;;;;;;;;;;;;;;11.05;95.21;100354.06;7387481;19;19915;-87
2022/11/28 05:25:07;;;;;;;;;;;;;;;11.03;94.73;100346.31;7387380;19;19923;-89
2022/11/28 05:30:57;;;;;;;;;;;;;;;10.97;94.49;100347.00;7392096;19;19927;-89
2022/11/28 05:33:24;;;;;;;;;;;;;;;10.95;94.36;100343.72;7393486;19;19929;-88
2022/11/28 05:35:51;;;;;;;;;;;;;;;10.95;94.95;100346.34;7394322;19;20010;-88
2022/11/28 05:38:19;;;;;;;;;;;;;;;10.96;95.38;100348.00;7392812;19;19926;-88
2022/11/28 05:40:50;;;;;;;;;;;;;;;10.95;95.15;100346.34;7393617;19;19923;-89
2022/11/28 05:43:19;;;;;;;;;;;;;;;10.96;95.24;100344.53;7393129;19;19923;-88
2022/11/28 05:45:46;;;;;;;;;;;;;;;10.95;95.02;100353.41;7391072;19;19927;-88
2022/11/28 05:48:13;;;;;;;;;;;;;;;10.95;94.35;100356.06;7389359;19;19923;-89
2022/11/28 05:50:40;;;;;;;;;;;;;;;10.94;94.30;100354.41;7389650;19;19918;-88
2022/11/28 05:53:08;;;;;;;;;;;;;;;10.93;93.75;100361.47;7390134;19;20313;-88
2022/11/28 05:55:37;;;;;;;;;;;;;;;10.90;93.40;100361.81;7391638;19;19929;-87
2022/11/28 05:58:04;;;;;;;;;;;;;;;10.87;93.14;100363.97;7388138;19;19945;-88
2022/11/28 06:00:31;;;;;;;;;;;;;;;10.81;93.25;100370.72;7390599;19;19931;-88
2022/11/28 06:03:02;;;;;;;;;;;;;;;10.81;93.90;100364.63;7393118;19;19915;-88
2022/11/28 06:05:30;;;;;;;;;;;;;;;10.83;94.05;100366.09;7393064;19;19922;-88
2022/11/28 06:08:12;;;;;;;;;;;;;;;10.84;94.18;100369.56;7392930;19;19923;-89
2022/11/28 06:10:39;;;;;;;;;;;;;;;10.83;94.07;100366.09;7391769;19;20299;-88
2022/11/28 06:13:08;;;;;;;;;;;;;;;10.83;93.90;100366.09;7393283;19;19939;-88
2022/11/28 06:15:35;;;;;;;;;;;;;;;10.83;94.38;100362.63;7390622;19;19922;-88
2022/11/28 06:21:22;;;;;;;;;;;;;;;10.86;94.55;100370.22;7392530;19;20522;-91
2022/11/28 06:23:50;;;;;;;;;;;;;;;10.85;94.12;100358.88;7392290;19;19982;-89
2022/11/28 06:26:18;;;;;;;;;;;;;;;10.84;94.35;100357.22;7392086;19;19951;-89
2022/11/28 06:28:46;;;;;;;;;;;;;;;10.83;93.83;100363.47;7386408;19;19919;-89
2022/11/28 06:31:14;;;;;;;;;;;;;;;10.87;95.16;100356.06;7390291;19;19923;-88
2022/11/28 06:33:44;;;;;;;;;;;;;;;10.87;94.91;100353.44;7391920;19;19940;-87
2022/11/28 06:36:12;;;;;;;;;;;;;;;10.86;94.40;100364.97;7395295;19;19947;-89
2022/11/28 06:38:39;;;;;;;;;;;;;;;10.85;94.04;100358.88;7395737;19;19919;-87
2022/11/28 06:41:07;;;;;;;;;;;;;;;10.86;94.39;100368.41;7398082;19;20442;-87
2022/11/28 06:43:35;;;;;;;;;;;;;;;10.88;94.27;100366.41;7399848;19;19943;-88
2022/11/28 06:52:41;;;;;;;;;;;;;;;10.95;94.91;100369.22;7401760;19;19923;-88
2022/11/28 06:55:08;;;;;;;;;;;;;;;10.94;94.54;100378.09;7399501;19;19922;-89
2022/11/28 06:57:36;;;;;;;;;;;;;;;10.89;94.13;100381.22;7397838;19;20504;-90
2022/11/28 07:00:04;;;;;;;;;;;;;;;10.89;94.84;100372.50;7394711;19;19954;-89
2022/11/28 07:02:32;;;;;;;;;;;;;;;10.87;94.63;100367.41;7395366;19;19923;-88
2022/11/28 07:05:00;;;;;;;;;;;;;;;10.86;95.02;100368.41;7397072;19;19959;-90
2022/11/28 07:07:27;;;;;;;;;;;;;;;10.86;94.74;100378.13;7394552;19;19935;-87
2022/11/28 07:09:54;;;;;;;;;;;;;;;10.84;94.62;100375.63;7398256;19;19927;-89
2022/11/28 07:12:21;;;;;;;;;;;;;;;10.85;94.75;100377.28;7395961;19;19915;-89
2022/11/28 07:14:48;;;;;;;;;;;;;;;10.84;94.49;100378.28;7400167;19;19915;-90
2022/11/28 07:17:15;;;;;;;;;;;;;;;10.83;94.38;100370.53;7399866;19;19950;-88
2022/11/28 07:19:42;;;;;;;;;;;;;;;10.83;94.16;100368.72;7397553;19;19990;-87
2022/11/28 07:22:18;;;;;;;;;;;;;;;10.78;93.69;100371.03;7401591;19;19946;-88
2022/11/28 07:24:47;;;;;;;;;;;;;;;10.79;93.91;100370.06;7402416;19;20328;-88
2022/11/28 07:27:15;;;;;;;;;;;;;;;10.78;93.84;100371.03;7397581;19;19931;-88
2022/11/28 07:29:48;;;;;;;;;;;;;;;10.78;93.86;100373.66;7402464;19;19961;-89
2022/11/28 07:32:15;;;;;;;;;;;;;;;10.80;94.30;100376.97;7401513;19;19923;-89
2022/11/28 07:34:44;;;;;;;;;;;;;;;10.80;94.28;100384.84;7404109;19;20316;-89
2022/11/28 07:37:15;;;;;;;;;;;;;;;10.80;93.67;100381.41;7401705;19;19915;-88
2022/11/28 07:39:43;;;;;;;;;;;;;;;10.81;94.25;100386.50;7398570;19;19923;-89
2022/11/28 07:42:10;;;;;;;;;;;;;;;10.81;93.77;100377.78;7400212;19;19922;-88
2022/11/28 07:44:37;;;;;;;;;;;;;;;10.80;94.28;100378.78;7398029;19;19996;-89
2022/11/28 07:47:08;;;;;;;;;;;;;;;10.80;94.50;100381.41;7397750;19;19922;-88
2022/11/28 07:49:35;;;;;;;;;;;;;;;10.80;94.53;100382.22;7400023;19;19927;-88
2022/11/28 07:52:02;;;;;;;;;;;;;;;10.81;94.55;100375.16;7399211;19;20015;-89
2022/11/28 07:54:29;;;;;;;;;;;;;;;10.80;94.12;100376.13;7408897;19;19914;-90
2022/11/28 07:56:57;;;;;;;;;;;;;;;10.81;93.81;100380.41;7403039;19;19919;-88
2022/11/28 07:59:40;;;;;;;;;;;;;;;10.81;93.95;100380.41;7402806;19;19943;-89
2022/11/28 08:02:08;;;;;;;;;;;;;;;10.81;94.17;100375.97;7405938;19;19919;-87
2022/11/28 08:04:36;;;;;;;;;;;;;;;10.80;94.06;100376.97;7407558;19;19914;-90
2022/11/28 08:07:12;;;;;;;;;;;;;;;10.80;93.91;100374.34;7406141;19;19915;-87
2022/11/28 08:09:39;;;;;;;;;;;;;;;10.79;94.07;100380.56;7405391;19;19926;-89
2022/11/28 08:12:06;;;;;;;;;;;;;;;10.83;94.15;100386.31;7404945;19;19930;-89
2022/11/28 08:14:33;;;;;;;;;;;;;;;10.83;93.96;100381.06;7405184;19;19915;-90
2022/11/28 08:20:19;;;;;;;;;;;;;;;10.86;93.98;100383.38;7384980;19;19938;-89
2022/11/28 08:22:46;;;;;;;;;;;;;;;10.89;94.41;100381.22;7394755;19;19945;-88
2022/11/28 08:25:15;;;;;;;;;;;;;;;10.92;94.39;100387.97;7396649;19;20010;-88
2022/11/28 08:27:44;;;;;;;;;;;;;;;10.96;94.73;100384.03;7394484;19;20849;-90
2022/11/28 08:30:12;;;;;;;;;;;;;;;11.00;95.11;100388.78;7395341;19;19984;-89
2022/11/28 08:32:42;;;;;;;;;;;;;;;11.03;95.14;100387.63;7393935;19;19978;-87
2022/11/28 08:35:09;;;;;;;;;;;;;;;11.05;94.72;100390.91;7400120;19;19927;-88
2022/11/28 08:37:36;;;;;;;;;;;;;;;11.02;94.37;100378.91;7400449;19;19921;-87
2022/11/28 08:40:04;;;;;;;;;;;;;;;11.05;94.21;100377.75;7398351;19;19950;-88
2022/11/28 08:42:32;;;;;;;;;;;;;;;11.08;94.34;100382.69;7403928;19;19936;-88
2022/11/28 08:45:00;;;;;;;;;;;;;;;11.10;94.33;100383.34;7402633;19;19927;-88
2022/11/28 08:47:27;;;;;;;;;;;;;;;11.10;94.06;100392.06;7403046;19;20277;-89
2022/11/28 08:49:54;;;;;;;;;;;;;;;11.13;93.97;100396.16;7402390;19;19944;-90
2022/11/28 08:52:21;;;;;;;;;;;;;;;11.14;94.05;100390.75;7401260;19;19930;-88
2022/11/28 08:54:49;;;;;;;;;;;;;;;11.16;93.99;100385.31;7399243;19;19922;-89
2022/11/28 08:57:17;;;;;;;;;;;;;;;11.18;93.75;100396.47;7400752;19;19926;-88
2022/11/28 08:59:44;;;;;;;;;;;;;;;11.20;94.06;100389.25;7397383;19;20285;-89
2022/11/28 09:02:11;;;;;;;;;;;;;;;11.25;94.27;100396.66;7397636;19;20316;-89
2022/11/28 09:04:39;;;;;;;;;;;;;;;11.31;94.48;100394.16;7400933;19;19915;-89
2022/11/28 09:07:09;;;;;;;;;;;;;;;11.32;93.90;100390.56;7399882;19;19922;-88
2022/11/28 09:09:36;;;;;;;;;;;;;;;11.33;93.61;100386.06;7400851;19;20296;-90
2022/11/28 09:12:09;;;;;;;;;;;;;;;11.37;93.92;100384.78;7402664;19;19919;-90
2022/11/28 09:14:39;;;;;;;;;;;;;;;11.38;93.97;100378.50;7399001;19;20238;-89
2022/11/28 09:17:09;;;;;;;;;;;;;;;11.40;93.78;100379.16;7402392;19;19918;-89
2022/11/28 09:19:39;;;;;;;;;;;;;;;11.42;93.78;100379.81;7400991;19;19926;-91
2022/11/28 09:22:07;;;;;;;;;;;;;;;11.48;93.69;100384.38;7398481;19;19923;-88
2022/11/28 09:24:34;;;;;;;;;;;;;;;11.50;92.94;100383.25;7399610;19;19922;-89
2022/11/28 09:27:05;;;;;;;;;;;;;;;11.53;92.80;100376.78;7400454;19;19927;-89
2022/11/28 09:29:32;;;;;;;;;;;;;;;11.55;93.03;100386.19;7399115;19;19936;-88
2022/11/28 09:32:00;;;;;;;;;;;;;;;11.59;93.02;100382.22;7397474;19;20161;-87
2022/11/28 09:34:27;;;;;;;;;;;;;;;11.65;92.87;100387.78;7397787;19;19942;-90
2022/11/28 09:36:55;;;;;;;;;;;;;;;11.68;92.92;100380.38;7393830;19;19922;-88
2022/11/28 09:39:27;;;;;;;;;;;;;;;11.72;92.29;100384.31;7393651;19;20290;-89
2022/11/28 09:45:33;;;;;;;;;;;;;;;11.80;92.09;100386.13;7400772;19;19907;-90
2022/11/28 09:48:04;;;;;;;;;;;;;;;11.83;91.89;100383.16;7394880;19;19923;-89
2022/11/28 09:50:34;;;;;;;;;;;;;;;11.84;92.08;100380.31;7395487;19;20368;-88
2022/11/28 09:53:04;;;;;;;;;;;;;;;11.86;91.90;100375.72;7392646;19;19915;-89
2022/11/28 09:55:38;;;;;;;;;;;;;;;11.84;91.39;100377.69;7394099;19;19911;-89
2022/11/28 09:58:15;;;;;;;;;;;;;;;11.88;91.34;100394.00;7395520;19;19951;-90
2022/11/28 10:00:52;;;;;;;;;;;;;;;11.89;91.19;100398.25;7397260;19;19925;-87
2022/11/28 10:03:31;;;;;;;;;;;;;;;11.91;91.27;100393.66;7396386;19;19926;-89
2022/11/28 10:06:08;;;;;;;;;;;;;;;11.91;91.53;100389.19;7397250;19;19923;-90
2022/11/28 10:08:36;;;;;;;;;;;;;;;11.95;91.84;100390.50;7401595;19;20130;-87
2022/11/28 10:11:05;;;;;;;;;;;;;;;11.98;91.77;100395.44;7405487;19;19931;-88
2022/11/28 10:13:42;;;;;;;;;;;;;;;11.99;91.16;100391.78;7405864;19;19918;-88
2022/11/28 10:16:39;;;;;;;;;;;;;;;12.04;91.20;100393.91;7405333;19;20336;-88
2022/11/28 10:19:10;;;;;;;;;;;;;;;12.07;91.23;100383.03;7403746;19;19919;-89
2022/11/28 10:21:59;;;;;;;;;;;;;;;12.09;90.54;100399.47;7406667;19;19941;-90
2022/11/28 10:24:35;;;;;;;;;;;;;;;12.13;90.35;100394.69;7403915;19;20253;-88
2022/11/28 10:27:03;;;;;;;;;;;;;;;12.18;89.59;100400.28;7404251;19;19922;-89
2022/11/28 10:29:37;;;;;;;;;;;;;;;12.20;88.78;100404.38;7409248;19;20226;-88
2022/11/28 10:32:05;;;;;;;;;;;;;;;12.25;88.30;100406.47;7409964;19;19933;-89
2022/11/28 10:34:40;;;;;;;;;;;;;;;12.28;88.53;100403.50;7382414;19;19930;-88
2022/11/28 10:37:12;;;;;;;;;;;;;;;12.33;88.70;100399.34;7406262;19;19925;-87
2022/11/28 10:39:42;;;;;;;;;;;;;;;12.36;88.47;100395.53;7404686;19;20254;-89
2022/11/28 10:42:19;;;;;;;;;;;;;;;12.39;88.23;100403.13;7405795;19;19994;-88
2022/11/28 10:44:56;;;;;;;;;;;;;;;12.37;87.59;100405.91;7400357;19;19929;-87
2022/11/28 10:47:23;;;;;;;;;;;;;;;12.39;87.40;100401.28;7400903;19;19930;-88
2022/11/28 10:50:01;;;;;;;;;;;;;;;12.40;87.47;100400.28;7400057;19;20325;-88
2022/11/28 10:52:30;;;;;;;;;;;;;;;12.40;87.97;100405.56;7397155;19;19914;-87
2022/11/28 10:55:01;;;;;;;;;;;;;;;12.39;87.01;100403.13;7398586;19;19919;-88
2022/11/28 10:57:39;;;;;;;;;;;;;;;12.37;87.13;100403.28;7396719;19;19915;-88
2022/11/28 11:00:11;;;;;;;;;;;;;;;12.37;87.16;100399.81;7394979;19;20362;-89
2022/11/28 11:02:44;;;;;;;;;;;;;;;12.41;88.14;100406.38;7397319;19;20279;-89
2022/11/28 11:08:33;;;;;;;;;;;;;;;12.44;87.51;100398.13;7402427;19;20313;-88
2022/11/28 11:11:10;;;;;;;;;;;;;;;12.41;86.60;100396.66;7398217;19;19915;-86
2022/11/28 11:13:46;;;;;;;;;;;;;;;12.42;86.36;100402.75;7397699;19;19986;-90
2022/11/28 11:16:13;;;;;;;;;;;;;;;12.42;85.80;100393.03;7396632;19;19915;-87
2022/11/28 11:18:41;;;;;;;;;;;;;;;12.44;85.72;100393.66;7393068;19;19926;-89
2022/11/28 11:21:09;;;;;;;;;;;;;;;12.49;86.53;100395.78;7393253;19;19919;-87
2022/11/28 11:23:36;;;;;;;;;;;;;;;12.50;86.24;100402.69;7392994;19;19935;-88
2022/11/28 11:26:08;;;;;;;;;;;;;;;12.56;87.05;100404.63;7395433;19;19954;-88
2022/11/28 11:28:37;;;;;;;;;;;;;;;12.60;86.86;100402.44;7394961;19;19919;-88
2022/11/28 11:31:13;;;;;;;;;;;;;;;12.66;86.72;100409.66;7399359;19;19947;-89
2022/11/28 11:37:11;;;;;;;;;;;;;;;12.78;86.61;100410.91;7398435;19;19911;-89
2022/11/28 11:39:45;;;;;;;;;;;;;;;12.84;86.60;100407.56;7394892;19;19932;-88
2022/11/28 11:42:19;;;;;;;;;;;;;;;12.91;86.37;100403.19;7397864;19;19958;-87
2022/11/28 11:44:46;;;;;;;;;;;;;;;12.94;85.95;100402.03;7401470;19;19959;-88
2022/11/28 11:47:15;;;;;;;;;;;;;;;12.97;85.57;100396.38;7400049;19;19927;-88
2022/11/28 11:49:46;;;;;;;;;;;;;;;13.01;84.79;100392.38;7396881;19;19914;-87
2022/11/28 11:52:21;;;;;;;;;;;;;;;13.04;84.45;100400.78;7407263;19;19991;-89
2022/11/28 11:54:55;;;;;;;;;;;;;;;13.05;84.49;100394.50;7397785;19;19923;-87
2022/11/28 11:57:24;;;;;;;;;;;;;;;13.09;84.48;100398.41;7400425;19;19991;-87
2022/11/28 12:00:08;;;;;;;;;;;;;;;13.10;84.40;100394.78;7397883;19;19911;-89
2022/11/28 12:02:40;;;;;;;;;;;;;;;13.12;83.07;100395.44;7410369;19;19935;-88
2022/11/28 12:05:11;;;;;;;;;;;;;;;13.15;82.92;100397.75;7399823;19;19954;-88
2022/11/28 12:07:49;;;;;;;;;;;;;;;13.18;82.22;100400.00;7405996;19;19951;-88
2022/11/28 12:10:19;;;;;;;;;;;;;;;13.23;83.34;100410.03;7393804;19;19923;-87
2022/11/28 12:12:46;;;;;;;;;;;;;;;13.32;84.23;100406.31;7393732;19;19952;-88
2022/11/28 12:15:16;;;;;;;;;;;;;;;13.39;85.16;100411.69;7397366;19;20417;-87
2022/11/28 12:17:43;;;;;;;;;;;;;;;13.41;85.40;100412.34;7396877;19;19955;-87
2022/11/28 12:20:42;;;;;;;;;;;;;;;13.40;83.65;100414.16;7414773;19;19943;-88
2022/11/28 12:23:24;;;;;;;;;;;;;;;13.36;83.59;100414.72;7396751;19;20206;-88
2022/11/28 12:25:51;;;;;;;;;;;;;;;13.32;83.18;100413.41;7393879;19;19922;-87
2022/11/28 12:28:30;;;;;;;;;;;;;;;13.31;83.19;100412.56;7392997;19;20305;-87
2022/11/28 12:30:59;;;;;;;;;;;;;;;13.28;83.46;100420.88;7392087;19;19911;-86
2022/11/28 13:03:19;;;;;;;;;;;;;;;12.95;84.23;100433.53;7391991;19;20257;-88
2022/11/28 13:05:57;;;;;;;;;;;;;;;12.96;84.41;100429.06;7391779;19;19919;-88
2022/11/28 13:08:33;;;;;;;;;;;;;;;12.96;84.50;100436.97;7392382;19;20269;-88
2022/11/28 13:11:14;;;;;;;;;;;;;;;12.99;85.28;100440.09;7392285;19;19925;-88
2022/11/28 13:16:54;;;;;;;;;;;;;;;13.02;85.44;100436.28;7395697;19;19923;-87
2022/11/28 13:19:21;;;;;;;;;;;;;;;13.05;85.83;100449.16;7393917;19;19919;-86
2022/11/28 13:21:59;;;;;;;;;;;;;;;13.04;85.53;100450.97;7395719;19;19911;-88
2022/11/28 13:24:32;;;;;;;;;;;;;;;13.06;85.32;100445.47;7394085;19;19964;-88
2022/11/28 13:27:05;;;;;;;;;;;;;;;13.06;85.04;100450.75;7391127;19;19982;-89
2022/11/28 13:29:39;;;;;;;;;;;;;;;13.07;84.89;100444.50;7389729;19;19979;-89
2022/11/28 13:32:06;;;;;;;;;;;;;;;13.06;84.12;100448.94;7394740;19;19963;-88
2022/11/28 13:34:33;;;;;;;;;;;;;;;13.07;84.19;100453.22;7394699;19;19919;-88
2022/11/28 13:37:12;;;;;;;;;;;;;;;13.09;84.53;100453.88;7393734;19;19922;-88
2022/11/28 13:40:08;;;;;;;;;;;;;;;13.12;84.74;100452.72;7391580;19;19954;-87
2022/11/28 13:42:45;;;;;;;;;;;;;;;13.12;84.32;100458.84;7396542;19;19919;-89
2022/11/28 13:45:34;;;;;;;;;;;;;;;13.12;85.00;100463.28;7398897;19;19926;-88
2022/11/28 13:48:11;;;;;;;;;;;;;;;13.09;85.40;100458.34;7400508;19;20217;-87
2022/11/28 13:54:05;;;;;;;;;;;;;;;13.08;85.93;100468.09;7399580;19;19923;-88
2022/11/28 13:56:32;;;;;;;;;;;;;;;13.09;86.32;100463.63;7392779;19;19922;-86
2022/11/28 13:59:01;;;;;;;;;;;;;;;13.06;86.33;100470.06;7391700;19;19911;-88
2022/11/28 14:01:41;;;;;;;;;;;;;;;13.06;86.29;100469.25;7400633;19;19936;-88
2022/11/28 14:07:28;;;;;;;;;;;;;;;13.05;87.00;100480.84;7398387;19;20548;-89
2022/11/28 14:10:06;;;;;;;;;;;;;;;13.04;87.74;100480.00;7395879;19;19955;-88
2022/11/28 14:12:48;;;;;;;;;;;;;;;13.04;88.01;100482.66;7400143;19;19951;-89
2022/11/28 14:15:26;;;;;;;;;;;;;;;13.04;88.16;100479.19;7394429;19;20357;-88
2022/11/28 14:18:00;;;;;;;;;;;;;;;13.03;88.09;100474.91;7394960;19;19918;-87
2022/11/28 14:20:27;;;;;;;;;;;;;;;13.03;88.26;100477.53;7385912;19;19990;-87
2022/11/28 14:23:03;;;;;;;;;;;;;;;13.03;88.56;100482.81;7387194;19;20286;-90
2022/11/28 14:25:31;;;;;;;;;;;;;;;13.04;88.60;100480.00;7387508;19;19926;-88
2022/11/28 14:28:00;;;;;;;;;;;;;;;13.05;88.85;100483.47;7388342;19;19930;-87
2022/11/28 14:30:27;;;;;;;;;;;;;;;13.08;89.30;100483.13;7390795;19;19919;-87
2022/11/28 14:32:59;;;;;;;;;;;;;;;13.09;89.44;100487.41;7390770;19;19919;-88
2022/11/28 14:35:36;;;;;;;;;;;;;;;13.10;89.46;100494.34;7392700;19;19947;-88